sensor_id;sensor_type;location;lat;lon;timestamp;pressure;altitude;pressure_sealevel;temperature;humidity
49645;BME280;36494;50.730;-1.932;2023-10-08T00:00:06;101961.16;;;15.67;100.00
49645;BME280;36494;50.730;-1.932;2023-10-08T00:02:30;101962.60;;;15.66;100.00
49645;BME280;36494;50.730;-1.932;2023-10-08T00:04:56;101960.81;;;15.65;100.00
49645;BME280;36494;50.730;-1.932;2023-10-08T00:07:22;101957.80;;;15.63;100.00
49645;BME280;36494;50.730;-1.932;2023-10-08T00:09:48;101955.77;;;15.62;100.00
49645;BME280;36494;50.730;-1.932;2023-10-08T00:12:12;101955.23;;;15.61;100.00
49645;BME280;36494;50.730;-1.932;2023-10-08T00:14:38;101953.49;;;15.60;100.00
49645;BME280;36494;50.730;-1.932;2023-10-08T00:17:03;101954.35;;;15.60;100.00
49645;BME280;36494;50.730;-1.932;2023-10-08T00:19:29;101956.10;;;15.58;100.00
49645;BME280;36494;50.730;-1.932;2023-10-08T00:21:54;101957.59;;;15.58;100.00
49645;BME280;36494;50.730;-1.932;2023-10-08T00:24:19;101963.13;;;15.59;100.00
49645;BME280;36494;50.730;-1.932;2023-10-08T00:26:44;101962.10;;;15.61;100.00
49645;BME280;36494;50.730;-1.932;2023-10-08T00:29:09;101960.65;;;15.62;100.00
49645;BME280;36494;50.730;-1.932;2023-10-08T00:31:35;101959.12;;;15.64;100.00
49645;BME280;36494;50.730;-1.932;2023-10-08T00:34:00;101961.34;;;15.65;100.00
49645;BME280;36494;50.730;-1.932;2023-10-08T00:36:25;101964.30;;;15.64;100.00
49645;BME280;36494;50.730;-1.932;2023-10-08T00:38:51;101962.79;;;15.64;100.00
49645;BME280;36494;50.730;-1.932;2023-10-08T00:41:17;101962.26;;;15.63;100.00
49645;BME280;36494;50.730;-1.932;2023-10-08T00:43:42;101961.14;;;15.63;100.00
49645;BME280;36494;50.730;-1.932;2023-10-08T00:46:08;101961.14;;;15.64;100.00
49645;BME280;36494;50.730;-1.932;2023-10-08T00:48:33;101961.77;;;15.64;100.00
49645;BME280;36494;50.730;-1.932;2023-10-08T00:50:58;101960.30;;;15.65;100.00
49645;BME280;36494;50.730;-1.932;2023-10-08T00:53:23;101962.50;;;15.67;100.00
49645;BME280;36494;50.730;-1.932;2023-10-08T00:55:49;101965.64;;;15.68;100.00
49645;BME280;36494;50.730;-1.932;2023-10-08T00:58:14;101965.78;;;15.66;100.00
49645;BME280;36494;50.730;-1.932;2023-10-08T01:00:39;101968.28;;;15.65;100.00
49645;BME280;36494;50.730;-1.932;2023-10-08T01:03:05;101970.89;;;15.66;100.00
49645;BME280;36494;50.730;-1.932;2023-10-08T01:05:31;101974.69;;;15.65;100.00
49645;BME280;36494;50.730;-1.932;2023-10-08T01:07:55;101973.93;;;15.64;100.00
49645;BME280;36494;50.730;-1.932;2023-10-08T01:10:20;101974.15;;;15.63;100.00
49645;BME280;36494;50.730;-1.932;2023-10-08T01:12:46;101977.89;;;15.62;100.00
49645;BME280;36494;50.730;-1.932;2023-10-08T01:15:11;101981.76;;;15.61;100.00
49645;BME280;36494;50.730;-1.932;2023-10-08T01:17:36;101979.07;;;15.60;100.00
49645;BME280;36494;50.730;-1.932;2023-10-08T01:20:01;101980.70;;;15.57;100.00
49645;BME280;36494;50.730;-1.932;2023-10-08T01:22:27;101978.06;;;15.56;100.00
49645;BME280;36494;50.730;-1.932;2023-10-08T01:24:52;101975.23;;;15.52;100.00
49645;BME280;36494;50.730;-1.932;2023-10-08T01:27:19;101974.87;;;15.49;100.00
49645;BME280;36494;50.730;-1.932;2023-10-08T01:29:43;101976.45;;;15.47;100.00
49645;BME280;36494;50.730;-1.932;2023-10-08T01:32:08;101975.70;;;15.43;100.00
49645;BME280;36494;50.730;-1.932;2023-10-08T01:34:33;101971.44;;;15.40;100.00
49645;BME280;36494;50.730;-1.932;2023-10-08T01:36:59;101968.01;;;15.37;100.00
49645;BME280;36494;50.730;-1.932;2023-10-08T01:39:24;101962.79;;;15.31;100.00
49645;BME280;36494;50.730;-1.932;2023-10-08T01:41:50;101964.20;;;15.28;100.00
49645;BME280;36494;50.730;-1.932;2023-10-08T01:44:15;101960.32;;;15.25;100.00
49645;BME280;36494;50.730;-1.932;2023-10-08T01:46:40;101958.92;;;15.19;100.00
49645;BME280;36494;50.730;-1.932;2023-10-08T01:49:06;101960.63;;;15.15;100.00
49645;BME280;36494;50.730;-1.932;2023-10-08T01:51:31;101962.60;;;15.10;100.00
49645;BME280;36494;50.730;-1.932;2023-10-08T01:53:56;101961.70;;;15.09;100.00
49645;BME280;36494;50.730;-1.932;2023-10-08T01:56:21;101964.32;;;15.06;100.00
49645;BME280;36494;50.730;-1.932;2023-10-08T01:58:46;101961.48;;;15.03;100.00
49645;BME280;36494;50.730;-1.932;2023-10-08T02:01:12;101961.33;;;14.98;100.00
49645;BME280;36494;50.730;-1.932;2023-10-08T02:03:37;101959.35;;;14.94;100.00
49645;BME280;36494;50.730;-1.932;2023-10-08T02:06:03;101959.79;;;14.90;100.00
49645;BME280;36494;50.730;-1.932;2023-10-08T02:08:28;101962.65;;;14.86;100.00
49645;BME280;36494;50.730;-1.932;2023-10-08T02:10:54;101962.41;;;14.82;100.00
49645;BME280;36494;50.730;-1.932;2023-10-08T02:13:19;101967.67;;;14.78;100.00
49645;BME280;36494;50.730;-1.932;2023-10-08T02:15:48;101970.48;;;14.74;100.00
49645;BME280;36494;50.730;-1.932;2023-10-08T02:18:10;101970.56;;;14.70;100.00
49645;BME280;36494;50.730;-1.932;2023-10-08T02:20:36;101965.59;;;14.66;100.00
49645;BME280;36494;50.730;-1.932;2023-10-08T02:23:01;101961.61;;;14.61;100.00
49645;BME280;36494;50.730;-1.932;2023-10-08T02:25:26;101961.37;;;14.58;100.00
49645;BME280;36494;50.730;-1.932;2023-10-08T02:27:52;101961.45;;;14.54;100.00
49645;BME280;36494;50.730;-1.932;2023-10-08T02:30:18;101962.13;;;14.51;100.00
49645;BME280;36494;50.730;-1.932;2023-10-08T02:32:43;101964.34;;;14.48;100.00
49645;BME280;36494;50.730;-1.932;2023-10-08T02:35:09;101963.30;;;14.45;100.00
49645;BME280;36494;50.730;-1.932;2023-10-08T02:37:34;101962.84;;;14.40;100.00
49645;BME280;36494;50.730;-1.932;2023-10-08T02:40:00;101961.48;;;14.38;100.00
49645;BME280;36494;50.730;-1.932;2023-10-08T02:42:25;101961.48;;;14.36;100.00
49645;BME280;36494;50.730;-1.932;2023-10-08T02:44:51;101960.73;;;14.33;100.00
49645;BME280;36494;50.730;-1.932;2023-10-08T02:47:17;101962.01;;;14.31;100.00
49645;BME280;36494;50.730;-1.932;2023-10-08T02:49:43;101966.46;;;14.29;100.00
49645;BME280;36494;50.730;-1.932;2023-10-08T02:52:08;101964.76;;;14.27;100.00
49645;BME280;36494;50.730;-1.932;2023-10-08T02:54:35;101965.72;;;14.25;100.00
49645;BME280;36494;50.730;-1.932;2023-10-08T02:57:00;101967.11;;;14.23;100.00
49645;BME280;36494;50.730;-1.932;2023-10-08T02:59:28;101966.47;;;14.20;100.00
49645;BME280;36494;50.730;-1.932;2023-10-08T03:01:51;101968.19;;;14.18;100.00
49645;BME280;36494;50.730;-1.932;2023-10-08T03:04:17;101966.13;;;14.15;100.00
49645;BME280;36494;50.730;-1.932;2023-10-08T03:06:42;101961.43;;;14.12;100.00
49645;BME280;36494;50.730;-1.932;2023-10-08T03:09:07;101956.54;;;14.10;100.00
49645;BME280;36494;50.730;-1.932;2023-10-08T03:11:33;101956.02;;;14.13;100.00
49645;BME280;36494;50.730;-1.932;2023-10-08T03:13:58;101951.07;;;14.11;100.00
49645;BME280;36494;50.730;-1.932;2023-10-08T03:16:23;101952.98;;;14.10;100.00
49645;BME280;36494;50.730;-1.932;2023-10-08T03:18:48;101950.64;;;14.10;100.00
49645;BME280;36494;50.730;-1.932;2023-10-08T03:21:14;101951.64;;;14.10;100.00
49645;BME280;36494;50.730;-1.932;2023-10-08T03:23:40;101948.75;;;14.12;100.00
49645;BME280;36494;50.730;-1.932;2023-10-08T03:26:05;101947.60;;;14.10;100.00
49645;BME280;36494;50.730;-1.932;2023-10-08T03:28:30;101946.05;;;14.13;100.00
49645;BME280;36494;50.730;-1.932;2023-10-08T03:30:55;101946.88;;;14.13;100.00
49645;BME280;36494;50.730;-1.932;2023-10-08T03:33:21;101946.19;;;14.15;100.00
49645;BME280;36494;50.730;-1.932;2023-10-08T03:35:46;101946.68;;;14.16;100.00
49645;BME280;36494;50.730;-1.932;2023-10-08T03:38:11;101944.93;;;14.15;100.00
49645;BME280;36494;50.730;-1.932;2023-10-08T03:40:36;101945.19;;;14.14;100.00
49645;BME280;36494;50.730;-1.932;2023-10-08T03:43:01;101945.15;;;14.16;100.00
49645;BME280;36494;50.730;-1.932;2023-10-08T03:45:27;101944.84;;;14.18;100.00
49645;BME280;36494;50.730;-1.932;2023-10-08T03:47:53;101945.12;;;14.18;100.00
49645;BME280;36494;50.730;-1.932;2023-10-08T03:50:19;101945.90;;;14.18;100.00
49645;BME280;36494;50.730;-1.932;2023-10-08T03:52:44;101949.28;;;14.18;100.00
49645;BME280;36494;50.730;-1.932;2023-10-08T03:55:09;101952.36;;;14.19;100.00
49645;BME280;36494;50.730;-1.932;2023-10-08T03:57:34;101951.48;;;14.17;100.00
49645;BME280;36494;50.730;-1.932;2023-10-08T04:00:00;101954.65;;;14.15;100.00
49645;BME280;36494;50.730;-1.932;2023-10-08T04:02:25;101957.26;;;14.13;100.00
49645;BME280;36494;50.730;-1.932;2023-10-08T04:04:50;101957.51;;;14.12;100.00
49645;BME280;36494;50.730;-1.932;2023-10-08T04:07:16;101954.79;;;14.10;100.00
49645;BME280;36494;50.730;-1.932;2023-10-08T04:09:41;101953.09;;;14.08;100.00
49645;BME280;36494;50.730;-1.932;2023-10-08T04:12:06;101950.36;;;14.07;100.00
49645;BME280;36494;50.730;-1.932;2023-10-08T04:14:31;101949.21;;;14.04;100.00
49645;BME280;36494;50.730;-1.932;2023-10-08T04:16:57;101945.85;;;14.02;100.00
49645;BME280;36494;50.730;-1.932;2023-10-08T04:19:23;101943.43;;;13.99;100.00
49645;BME280;36494;50.730;-1.932;2023-10-08T04:21:48;101943.33;;;13.96;100.00
49645;BME280;36494;50.730;-1.932;2023-10-08T04:24:13;101942.07;;;13.94;100.00
49645;BME280;36494;50.730;-1.932;2023-10-08T04:26:38;101944.73;;;13.91;100.00
49645;BME280;36494;50.730;-1.932;2023-10-08T04:29:03;101947.11;;;13.89;100.00
49645;BME280;36494;50.730;-1.932;2023-10-08T04:31:29;101947.67;;;13.85;100.00
49645;BME280;36494;50.730;-1.932;2023-10-08T04:33:55;101949.44;;;13.83;100.00
49645;BME280;36494;50.730;-1.932;2023-10-08T04:36:20;101950.59;;;13.81;100.00
49645;BME280;36494;50.730;-1.932;2023-10-08T04:38:45;101948.70;;;13.78;100.00
49645;BME280;36494;50.730;-1.932;2023-10-08T04:41:10;101949.23;;;13.76;100.00
49645;BME280;36494;50.730;-1.932;2023-10-08T04:43:35;101944.69;;;13.74;100.00
49645;BME280;36494;50.730;-1.932;2023-10-08T04:46:01;101944.78;;;13.71;100.00
49645;BME280;36494;50.730;-1.932;2023-10-08T04:48:27;101946.92;;;13.69;100.00
49645;BME280;36494;50.730;-1.932;2023-10-08T04:50:52;101947.66;;;13.67;100.00
49645;BME280;36494;50.730;-1.932;2023-10-08T04:53:17;101947.34;;;13.65;100.00
49645;BME280;36494;50.730;-1.932;2023-10-08T04:55:43;101948.54;;;13.63;100.00
49645;BME280;36494;50.730;-1.932;2023-10-08T04:58:09;101947.42;;;13.60;100.00
49645;BME280;36494;50.730;-1.932;2023-10-08T05:00:34;101944.95;;;13.56;100.00
49645;BME280;36494;50.730;-1.932;2023-10-08T05:02:59;101940.52;;;13.53;100.00
49645;BME280;36494;50.730;-1.932;2023-10-08T05:05:25;101937.88;;;13.50;100.00
49645;BME280;36494;50.730;-1.932;2023-10-08T05:07:51;101931.68;;;13.47;100.00
49645;BME280;36494;50.730;-1.932;2023-10-08T05:10:17;101928.40;;;13.44;100.00
49645;BME280;36494;50.730;-1.932;2023-10-08T05:12:42;101927.28;;;13.42;100.00
49645;BME280;36494;50.730;-1.932;2023-10-08T05:15:08;101926.44;;;13.39;100.00
49645;BME280;36494;50.730;-1.932;2023-10-08T05:17:33;101928.77;;;13.37;100.00
49645;BME280;36494;50.730;-1.932;2023-10-08T05:19:58;101930.81;;;13.33;100.00
49645;BME280;36494;50.730;-1.932;2023-10-08T05:22:23;101932.96;;;13.30;100.00
49645;BME280;36494;50.730;-1.932;2023-10-08T05:24:49;101936.35;;;13.28;100.00
49645;BME280;36494;50.730;-1.932;2023-10-08T05:27:14;101935.72;;;13.25;100.00
49645;BME280;36494;50.730;-1.932;2023-10-08T05:29:39;101937.44;;;13.23;100.00
49645;BME280;36494;50.730;-1.932;2023-10-08T05:32:04;101939.06;;;13.21;100.00
49645;BME280;36494;50.730;-1.932;2023-10-08T05:34:30;101938.73;;;13.19;100.00
49645;BME280;36494;50.730;-1.932;2023-10-08T05:36:55;101937.42;;;13.17;100.00
49645;BME280;36494;50.730;-1.932;2023-10-08T05:39:21;101936.36;;;13.15;100.00
49645;BME280;36494;50.730;-1.932;2023-10-08T05:41:47;101936.17;;;13.13;100.00
49645;BME280;36494;50.730;-1.932;2023-10-08T05:44:12;101936.67;;;13.12;100.00
49645;BME280;36494;50.730;-1.932;2023-10-08T05:46:38;101935.40;;;13.10;100.00
49645;BME280;36494;50.730;-1.932;2023-10-08T05:49:03;101935.27;;;13.08;100.00
49645;BME280;36494;50.730;-1.932;2023-10-08T05:51:28;101934.97;;;13.06;100.00
49645;BME280;36494;50.730;-1.932;2023-10-08T05:53:53;101932.06;;;13.03;100.00
49645;BME280;36494;50.730;-1.932;2023-10-08T05:56:19;101929.53;;;12.99;100.00
49645;BME280;36494;50.730;-1.932;2023-10-08T05:58:44;101928.92;;;12.96;100.00
49645;BME280;36494;50.730;-1.932;2023-10-08T06:01:09;101931.25;;;12.94;100.00
49645;BME280;36494;50.730;-1.932;2023-10-08T06:03:35;101932.53;;;12.93;100.00
49645;BME280;36494;50.730;-1.932;2023-10-08T06:06:00;101933.24;;;12.91;100.00
49645;BME280;36494;50.730;-1.932;2023-10-08T06:08:25;101936.64;;;12.89;100.00
49645;BME280;36494;50.730;-1.932;2023-10-08T06:10:50;101936.92;;;12.85;100.00
49645;BME280;36494;50.730;-1.932;2023-10-08T06:13:16;101935.75;;;12.83;100.00
49645;BME280;36494;50.730;-1.932;2023-10-08T06:15:42;101933.72;;;12.80;100.00
49645;BME280;36494;50.730;-1.932;2023-10-08T06:18:06;101932.13;;;12.77;100.00
49645;BME280;36494;50.730;-1.932;2023-10-08T06:20:34;101932.75;;;12.74;100.00
49645;BME280;36494;50.730;-1.932;2023-10-08T06:22:58;101932.53;;;12.71;100.00
49645;BME280;36494;50.730;-1.932;2023-10-08T06:25:22;101932.05;;;12.69;100.00
49645;BME280;36494;50.730;-1.932;2023-10-08T06:27:47;101931.14;;;12.68;100.00
49645;BME280;36494;50.730;-1.932;2023-10-08T06:30:13;101934.72;;;12.67;100.00
49645;BME280;36494;50.730;-1.932;2023-10-08T06:32:38;101937.80;;;12.65;100.00
49645;BME280;36494;50.730;-1.932;2023-10-08T06:35:04;101938.97;;;12.64;100.00
49645;BME280;36494;50.730;-1.932;2023-10-08T06:37:29;101936.90;;;12.66;100.00
49645;BME280;36494;50.730;-1.932;2023-10-08T06:39:54;101939.22;;;12.68;100.00
49645;BME280;36494;50.730;-1.932;2023-10-08T06:42:20;101939.19;;;12.70;100.00
49645;BME280;36494;50.730;-1.932;2023-10-08T06:44:45;101939.38;;;12.72;100.00
49645;BME280;36494;50.730;-1.932;2023-10-08T06:47:12;101933.43;;;12.74;100.00
49645;BME280;36494;50.730;-1.932;2023-10-08T06:49:37;101929.75;;;12.77;100.00
49645;BME280;36494;50.730;-1.932;2023-10-08T06:52:02;101925.41;;;12.79;100.00
49645;BME280;36494;50.730;-1.932;2023-10-08T06:54:27;101920.08;;;12.80;100.00
49645;BME280;36494;50.730;-1.932;2023-10-08T06:56:53;101918.46;;;12.88;100.00
49645;BME280;36494;50.730;-1.932;2023-10-08T06:59:18;101915.11;;;12.88;100.00
49645;BME280;36494;50.730;-1.932;2023-10-08T07:01:43;101913.11;;;12.90;100.00
49645;BME280;36494;50.730;-1.932;2023-10-08T07:04:08;101912.35;;;12.90;100.00
49645;BME280;36494;50.730;-1.932;2023-10-08T07:06:34;101916.45;;;12.92;100.00
49645;BME280;36494;50.730;-1.932;2023-10-08T07:09:01;101922.05;;;12.96;100.00
49645;BME280;36494;50.730;-1.932;2023-10-08T07:11:26;101925.72;;;12.96;100.00
49645;BME280;36494;50.730;-1.932;2023-10-08T07:13:52;101927.85;;;12.95;100.00
49645;BME280;36494;50.730;-1.932;2023-10-08T07:16:18;101929.37;;;12.94;100.00
49645;BME280;36494;50.730;-1.932;2023-10-08T07:18:43;101929.75;;;12.95;100.00
49645;BME280;36494;50.730;-1.932;2023-10-08T07:21:08;101935.70;;;12.96;100.00
49645;BME280;36494;50.730;-1.932;2023-10-08T07:23:34;101935.68;;;12.96;100.00
49645;BME280;36494;50.730;-1.932;2023-10-08T07:26:02;101935.01;;;12.96;100.00
49645;BME280;36494;50.730;-1.932;2023-10-08T07:28:26;101938.17;;;12.97;100.00
49645;BME280;36494;50.730;-1.932;2023-10-08T07:30:51;101940.73;;;12.99;100.00
49645;BME280;36494;50.730;-1.932;2023-10-08T07:33:16;101944.08;;;13.01;100.00
49645;BME280;36494;50.730;-1.932;2023-10-08T07:35:42;101940.94;;;13.04;100.00
49645;BME280;36494;50.730;-1.932;2023-10-08T07:38:08;101942.81;;;13.06;100.00
49645;BME280;36494;50.730;-1.932;2023-10-08T07:40:33;101943.63;;;13.09;100.00
49645;BME280;36494;50.730;-1.932;2023-10-08T07:42:59;101939.33;;;13.13;100.00
49645;BME280;36494;50.730;-1.932;2023-10-08T07:45:24;101939.80;;;13.16;100.00
49645;BME280;36494;50.730;-1.932;2023-10-08T07:47:50;101942.52;;;13.20;100.00
49645;BME280;36494;50.730;-1.932;2023-10-08T07:50:16;101945.44;;;13.24;100.00
49645;BME280;36494;50.730;-1.932;2023-10-08T07:52:41;101943.45;;;13.29;100.00
49645;BME280;36494;50.730;-1.932;2023-10-08T07:55:07;101946.61;;;13.31;100.00
49645;BME280;36494;50.730;-1.932;2023-10-08T07:57:32;101948.45;;;13.34;100.00
49645;BME280;36494;50.730;-1.932;2023-10-08T07:59:57;101949.60;;;13.37;100.00
49645;BME280;36494;50.730;-1.932;2023-10-08T08:02:24;101952.34;;;13.41;100.00
49645;BME280;36494;50.730;-1.932;2023-10-08T08:04:51;101954.95;;;13.44;100.00
49645;BME280;36494;50.730;-1.932;2023-10-08T08:07:14;101956.91;;;13.49;100.00
49645;BME280;36494;50.730;-1.932;2023-10-08T08:09:40;101958.32;;;13.53;100.00
49645;BME280;36494;50.730;-1.932;2023-10-08T08:12:06;101958.39;;;13.57;100.00
49645;BME280;36494;50.730;-1.932;2023-10-08T08:14:30;101960.06;;;13.61;100.00
49645;BME280;36494;50.730;-1.932;2023-10-08T08:16:56;101962.63;;;13.65;100.00
49645;BME280;36494;50.730;-1.932;2023-10-08T08:19:21;101960.79;;;13.71;100.00
49645;BME280;36494;50.730;-1.932;2023-10-08T08:21:47;101961.52;;;13.76;100.00
49645;BME280;36494;50.730;-1.932;2023-10-08T08:24:12;101962.98;;;13.80;100.00
49645;BME280;36494;50.730;-1.932;2023-10-08T08:26:37;101969.45;;;13.84;100.00
49645;BME280;36494;50.730;-1.932;2023-10-08T08:29:02;101977.28;;;13.89;100.00
49645;BME280;36494;50.730;-1.932;2023-10-08T08:31:28;101981.56;;;13.94;100.00
49645;BME280;36494;50.730;-1.932;2023-10-08T08:33:53;101984.64;;;14.00;100.00
49645;BME280;36494;50.730;-1.932;2023-10-08T08:36:19;101984.19;;;14.05;100.00
49645;BME280;36494;50.730;-1.932;2023-10-08T08:38:44;101984.31;;;14.09;100.00
49645;BME280;36494;50.730;-1.932;2023-10-08T08:41:09;101983.38;;;14.13;100.00
49645;BME280;36494;50.730;-1.932;2023-10-08T08:43:35;101983.28;;;14.18;100.00
49645;BME280;36494;50.730;-1.932;2023-10-08T08:46:01;101984.98;;;14.24;100.00
49645;BME280;36494;50.730;-1.932;2023-10-08T08:48:26;101987.92;;;14.30;100.00
49645;BME280;36494;50.730;-1.932;2023-10-08T08:50:51;101989.06;;;14.37;100.00
49645;BME280;36494;50.730;-1.932;2023-10-08T08:53:16;101987.98;;;14.43;100.00
49645;BME280;36494;50.730;-1.932;2023-10-08T08:55:41;101986.13;;;14.48;100.00
49645;BME280;36494;50.730;-1.932;2023-10-08T08:58:06;101984.33;;;14.60;100.00
49645;BME280;36494;50.730;-1.932;2023-10-08T09:00:32;101984.84;;;14.65;100.00
49645;BME280;36494;50.730;-1.932;2023-10-08T09:02:58;101983.48;;;14.74;100.00
49645;BME280;36494;50.730;-1.932;2023-10-08T09:05:23;101985.73;;;14.78;100.00
49645;BME280;36494;50.730;-1.932;2023-10-08T09:07:53;101987.52;;;14.86;100.00
49645;BME280;36494;50.730;-1.932;2023-10-08T09:10:14;101990.52;;;14.92;100.00
49645;BME280;36494;50.730;-1.932;2023-10-08T09:12:40;101995.26;;;14.99;100.00
49645;BME280;36494;50.730;-1.932;2023-10-08T09:15:06;101998.32;;;15.07;100.00
49645;BME280;36494;50.730;-1.932;2023-10-08T09:17:30;101995.24;;;15.14;100.00
49645;BME280;36494;50.730;-1.932;2023-10-08T09:19:56;101992.67;;;15.21;100.00
49645;BME280;36494;50.730;-1.932;2023-10-08T09:22:21;101990.81;;;15.27;100.00
49645;BME280;36494;50.730;-1.932;2023-10-08T09:24:48;101992.15;;;15.48;100.00
49645;BME280;36494;50.730;-1.932;2023-10-08T09:27:12;101990.39;;;15.64;100.00
49645;BME280;36494;50.730;-1.932;2023-10-08T09:29:36;101994.62;;;15.85;100.00
49645;BME280;36494;50.730;-1.932;2023-10-08T09:32:03;102000.53;;;15.87;100.00
49645;BME280;36494;50.730;-1.932;2023-10-08T09:34:29;102004.17;;;16.01;100.00
49645;BME280;36494;50.730;-1.932;2023-10-08T09:36:53;102004.68;;;16.21;100.00
49645;BME280;36494;50.730;-1.932;2023-10-08T09:39:19;102008.23;;;16.47;100.00
49645;BME280;36494;50.730;-1.932;2023-10-08T09:41:46;102008.53;;;16.59;100.00
49645;BME280;36494;50.730;-1.932;2023-10-08T09:44:09;102013.63;;;16.75;100.00
49645;BME280;36494;50.730;-1.932;2023-10-08T09:46:37;102011.52;;;16.82;100.00
49645;BME280;36494;50.730;-1.932;2023-10-08T09:49:01;102013.05;;;17.01;100.00
49645;BME280;36494;50.730;-1.932;2023-10-08T09:51:28;102009.98;;;17.00;100.00
49645;BME280;36494;50.730;-1.932;2023-10-08T09:53:55;102008.02;;;17.16;100.00
49645;BME280;36494;50.730;-1.932;2023-10-08T09:56:18;102008.76;;;17.30;100.00
49645;BME280;36494;50.730;-1.932;2023-10-08T09:58:43;102014.47;;;17.39;100.00
49645;BME280;36494;50.730;-1.932;2023-10-08T10:01:08;102017.03;;;17.53;100.00
49645;BME280;36494;50.730;-1.932;2023-10-08T10:03:34;102011.33;;;17.66;100.00
49645;BME280;36494;50.730;-1.932;2023-10-08T10:05:59;102011.53;;;17.78;100.00
49645;BME280;36494;50.730;-1.932;2023-10-08T10:08:25;102009.70;;;17.91;100.00
49645;BME280;36494;50.730;-1.932;2023-10-08T10:10:57;102007.05;;;18.02;100.00
49645;BME280;36494;50.730;-1.932;2023-10-08T10:13:17;102007.36;;;18.14;100.00
49645;BME280;36494;50.730;-1.932;2023-10-08T10:15:42;102013.33;;;18.28;100.00
49645;BME280;36494;50.730;-1.932;2023-10-08T10:18:08;102016.18;;;18.38;100.00
49645;BME280;36494;50.730;-1.932;2023-10-08T10:20:32;102016.96;;;18.62;100.00
49645;BME280;36494;50.730;-1.932;2023-10-08T10:22:57;102012.61;;;18.79;100.00
49645;BME280;36494;50.730;-1.932;2023-10-08T10:30:13;102011.31;;;19.38;100.00
49645;BME280;36494;50.730;-1.932;2023-10-08T10:32:44;102010.57;;;19.57;100.00
49645;BME280;36494;50.730;-1.932;2023-10-08T10:35:05;102015.79;;;19.63;100.00
49645;BME280;36494;50.730;-1.932;2023-10-08T10:37:29;102016.05;;;19.78;100.00
49645;BME280;36494;50.730;-1.932;2023-10-08T10:39:56;102021.96;;;20.39;100.00
49645;BME280;36494;50.730;-1.932;2023-10-08T10:42:20;102027.08;;;20.88;100.00
49645;BME280;36494;50.730;-1.932;2023-10-08T10:44:45;102027.58;;;20.74;100.00
49645;BME280;36494;50.730;-1.932;2023-10-08T10:47:10;102029.39;;;21.21;100.00
49645;BME280;36494;50.730;-1.932;2023-10-08T10:49:35;102031.40;;;21.72;100.00
49645;BME280;36494;50.730;-1.932;2023-10-08T10:52:01;102027.65;;;21.97;100.00
49645;BME280;36494;50.730;-1.932;2023-10-08T10:54:26;102027.34;;;21.80;100.00
49645;BME280;36494;50.730;-1.932;2023-10-08T10:56:52;102024.97;;;21.66;100.00
49645;BME280;36494;50.730;-1.932;2023-10-08T10:59:16;102025.27;;;21.39;100.00
49645;BME280;36494;50.730;-1.932;2023-10-08T11:01:42;102021.13;;;21.12;100.00
49645;BME280;36494;50.730;-1.932;2023-10-08T11:04:07;102017.39;;;21.40;100.00
49645;BME280;36494;50.730;-1.932;2023-10-08T11:06:32;102014.74;;;21.32;100.00
49645;BME280;36494;50.730;-1.932;2023-10-08T11:08:57;102012.10;;;21.27;100.00
49645;BME280;36494;50.730;-1.932;2023-10-08T11:11:26;102008.63;;;21.25;100.00
49645;BME280;36494;50.730;-1.932;2023-10-08T11:13:47;102010.89;;;21.11;100.00
49645;BME280;36494;50.730;-1.932;2023-10-08T11:16:13;102009.31;;;21.51;100.00
49645;BME280;36494;50.730;-1.932;2023-10-08T11:18:43;102009.31;;;21.97;100.00
49645;BME280;36494;50.730;-1.932;2023-10-08T11:21:07;102005.40;;;21.99;100.00
49645;BME280;36494;50.730;-1.932;2023-10-08T11:23:32;102003.94;;;21.55;100.00
49645;BME280;36494;50.730;-1.932;2023-10-08T11:25:55;102005.81;;;21.65;100.00
49645;BME280;36494;50.730;-1.932;2023-10-08T11:28:19;101999.75;;;21.51;100.00
49645;BME280;36494;50.730;-1.932;2023-10-08T11:30:44;101996.71;;;21.80;100.00
49645;BME280;36494;50.730;-1.932;2023-10-08T11:33:09;101998.30;;;21.75;100.00
49645;BME280;36494;50.730;-1.932;2023-10-08T11:35:34;101992.22;;;21.97;100.00
49645;BME280;36494;50.730;-1.932;2023-10-08T11:38:00;101996.33;;;22.18;100.00
49645;BME280;36494;50.730;-1.932;2023-10-08T11:40:25;101992.89;;;22.40;100.00
49645;BME280;36494;50.730;-1.932;2023-10-08T11:42:50;101992.45;;;22.47;100.00
49645;BME280;36494;50.730;-1.932;2023-10-08T11:45:15;101985.67;;;22.59;100.00
49645;BME280;36494;50.730;-1.932;2023-10-08T11:47:40;101986.74;;;22.78;100.00
49645;BME280;36494;50.730;-1.932;2023-10-08T11:50:06;101983.69;;;22.61;100.00
49645;BME280;36494;50.730;-1.932;2023-10-08T11:52:31;101981.34;;;22.72;100.00
49645;BME280;36494;50.730;-1.932;2023-10-08T11:54:56;101978.30;;;22.62;100.00
49645;BME280;36494;50.730;-1.932;2023-10-08T11:57:22;101969.85;;;23.39;100.00
49645;BME280;36494;50.730;-1.932;2023-10-08T11:59:47;101965.59;;;23.12;100.00
49645;BME280;36494;50.730;-1.932;2023-10-08T12:02:12;101964.29;;;23.34;100.00
49645;BME280;36494;50.730;-1.932;2023-10-08T12:04:37;101953.27;;;23.66;100.00
49645;BME280;36494;50.730;-1.932;2023-10-08T12:07:02;101949.11;;;23.77;100.00
49645;BME280;36494;50.730;-1.932;2023-10-08T12:09:28;101946.71;;;24.01;100.00
49645;BME280;36494;50.730;-1.932;2023-10-08T12:11:53;101941.40;;;23.92;100.00
49645;BME280;36494;50.730;-1.932;2023-10-08T12:14:18;101936.35;;;24.10;100.00
49645;BME280;36494;50.730;-1.932;2023-10-08T12:16:44;101929.58;;;23.14;100.00
49645;BME280;36494;50.730;-1.932;2023-10-08T12:19:09;101927.40;;;23.22;100.00
49645;BME280;36494;50.730;-1.932;2023-10-08T12:21:34;101925.08;;;23.15;100.00
49645;BME280;36494;50.730;-1.932;2023-10-08T12:24:00;101920.29;;;22.89;100.00